Time;durP1;ratioP1;P1;durP2;ratioP2;P2;SDS_P1;SDS_P2;PMS_P1;PMS_P2;Temp;Humidity;BMP_temperature;BMP_pressure;BME280_temperature;BME280_humidity;BME280_pressure;Samples;Min_cycle;Max_cycle;Signal;HPM_P1;HPM_P2
2023/11/29 00:02:23;;;;;;;6.90;4.68;;;;;;;1.49;59.53;96342.97;4920978;28;20204;-84
2023/11/29 00:04:48;;;;;;;6.72;4.40;;;;;;;1.45;59.49;96331.53;4937913;28;20259;-84
2023/11/29 00:07:14;;;;;;;8.65;4.70;;;;;;;1.48;59.68;96328.56;4927859;28;20242;-83
2023/11/29 00:09:39;;;;;;;7.43;4.55;;;;;;;1.48;59.46;96331.13;4928926;28;20239;-83
2023/11/29 00:12:05;;;;;;;9.25;5.38;;;;;;;1.49;59.92;96340.41;4935148;28;20180;-83
2023/11/29 00:14:32;;;;;;;10.10;5.65;;;;;;;1.43;60.09;96323.28;4919015;28;20189;-82
2023/11/29 00:16:57;;;;;;;7.70;5.13;;;;;;;1.49;60.16;96325.81;4903847;28;20191;-82
2023/11/29 00:19:23;;;;;;;8.77;5.43;;;;;;;1.62;59.28;96316.44;4925884;28;20652;-83
2023/11/29 00:21:48;;;;;;;11.05;5.10;;;;;;;1.69;59.19;96330.78;4908762;28;20106;-83
2023/11/29 00:24:13;;;;;;;8.05;4.78;;;;;;;1.77;58.87;96326.41;4930269;28;20231;-82
2023/11/29 00:26:39;;;;;;;10.45;5.35;;;;;;;1.68;58.99;96323.31;4939665;28;20258;-83
2023/11/29 00:29:04;;;;;;;7.97;4.75;;;;;;;1.61;59.13;96325.13;4916267;28;20343;-84
2023/11/29 00:31:30;;;;;;;8.80;5.40;;;;;;;1.69;59.02;96320.53;4929473;28;20584;-84
2023/11/29 00:33:55;;;;;;;8.95;5.30;;;;;;;1.58;59.44;96323.78;4933924;28;20316;-83
2023/11/29 00:36:20;;;;;;;9.10;5.70;;;;;;;1.59;59.50;96309.94;4936484;28;20782;-83
2023/11/29 00:38:46;;;;;;;9.95;5.45;;;;;;;1.56;59.70;96296.75;4925435;28;20846;-82
2023/11/29 00:41:11;;;;;;;11.00;5.85;;;;;;;1.59;59.49;96315.06;4904187;28;20196;-82
2023/11/29 00:43:37;;;;;;;9.68;5.38;;;;;;;1.78;58.62;96315.13;4901101;28;20720;-83
2023/11/29 00:46:03;;;;;;;10.77;6.10;;;;;;;1.73;58.94;96309.84;4920901;28;20591;-83
2023/11/29 00:48:29;;;;;;;10.65;5.90;;;;;;;1.83;59.00;96312.72;4921106;28;20204;-83
2023/11/29 00:50:54;;;;;;;9.95;5.13;;;;;;;1.73;59.38;96302.16;4916171;28;20084;-83
2023/11/29 00:53:20;;;;;;;10.18;5.57;;;;;;;1.78;59.86;96305.69;4906965;28;20187;-82
2023/11/29 00:55:45;;;;;;;8.70;5.35;;;;;;;1.73;59.39;96294.44;4924435;28;20608;-82
2023/11/29 00:58:11;;;;;;;9.52;5.00;;;;;;;1.67;59.67;96284.03;4916793;28;20200;-82
2023/11/29 01:00:36;;;;;;;9.95;5.50;;;;;;;1.80;59.61;96297.75;4925767;28;20273;-81
2023/11/29 01:03:02;;;;;;;10.63;6.22;;;;;;;1.81;59.36;96297.53;4906459;28;20585;-82
2023/11/29 01:05:27;;;;;;;11.23;5.70;;;;;;;1.72;59.35;96288.53;4916573;28;20190;-82
2023/11/29 01:07:53;;;;;;;9.25;5.40;;;;;;;1.84;59.26;96278.38;4935473;28;20286;-83
2023/11/29 01:10:18;;;;;;;11.63;5.78;;;;;;;1.87;58.95;96285.66;4934384;28;20210;-83
2023/11/29 01:12:44;;;;;;;9.35;5.57;;;;;;;1.77;59.17;96277.66;4925525;28;20173;-83
2023/11/29 01:15:10;;;;;;;9.05;5.25;;;;;;;1.63;59.34;96264.94;4924767;28;20276;-83
2023/11/29 01:17:35;;;;;;;10.43;5.88;;;;;;;1.92;59.25;96297.84;4941090;28;20712;-82
2023/11/29 01:20:02;;;;;;;10.07;5.93;;;;;;;1.86;59.42;96287.41;4929686;28;20207;-82
2023/11/29 01:22:27;;;;;;;10.50;6.15;;;;;;;1.93;59.83;96276.31;4902810;28;20243;-82
2023/11/29 01:24:53;;;;;;;10.98;6.07;;;;;;;2.08;59.10;96291.41;4917115;28;20272;-83
2023/11/29 01:27:18;;;;;;;10.13;5.15;;;;;;;1.97;59.96;96285.97;4914974;28;20208;-82
2023/11/29 01:29:44;;;;;;;10.80;5.88;;;;;;;1.99;60.35;96290.91;4913986;28;20645;-81
2023/11/29 01:32:09;;;;;;;13.65;6.00;;;;;;;2.00;60.91;96295.00;4936304;28;20644;-81
2023/11/29 01:34:34;;;;;;;10.60;5.57;;;;;;;1.95;60.72;96280.25;4903415;28;20245;-82
2023/11/29 01:37:00;;;;;;;12.15;6.05;;;;;;;2.11;60.89;96293.53;4926037;28;20250;-82
2023/11/29 01:39:26;;;;;;;11.30;5.20;;;;;;;2.08;60.51;96281.13;4924491;28;20278;-81
2023/11/29 01:41:51;;;;;;;10.98;6.00;;;;;;;2.19;60.00;96295.81;4926164;28;20537;-82
2023/11/29 01:44:17;;;;;;;10.57;5.50;;;;;;;2.12;60.60;96284.84;4908948;28;20228;-81
2023/11/29 01:46:42;;;;;;;11.07;5.90;;;;;;;2.20;60.37;96275.06;4920030;28;20289;-81
2023/11/29 01:49:08;;;;;;;11.35;5.45;;;;;;;2.29;60.13;96279.94;4924366;28;20264;-81
2023/11/29 01:51:34;;;;;;;11.38;6.13;;;;;;;2.32;59.86;96270.00;4916588;28;20703;-81
2023/11/29 01:54:01;;;;;;;14.98;6.30;;;;;;;2.43;59.98;96278.78;4942605;28;20169;-82
2023/11/29 01:56:26;;;;;;;10.35;5.57;;;;;;;2.44;60.26;96270.88;4929717;28;20246;-82
2023/11/29 01:58:52;;;;;;;11.73;6.38;;;;;;;2.50;59.93;96268.44;4916966;28;20524;-83
2023/11/29 02:01:18;;;;;;;12.30;6.30;;;;;;;2.33;60.16;96266.47;4932672;28;20209;-82
2023/11/29 02:03:44;;;;;;;13.63;6.47;;;;;;;2.50;60.16;96263.31;4911379;28;20255;-82
2023/11/29 02:06:10;;;;;;;12.10;6.50;;;;;;;2.55;59.85;96256.53;4919585;28;20272;-82
2023/11/29 02:08:36;;;;;;;13.32;5.90;;;;;;;2.49;59.77;96248.91;4924151;28;20713;-82
2023/11/29 02:11:01;;;;;;;10.80;5.43;;;;;;;2.61;60.00;96255.66;4953085;28;20168;-81
2023/11/29 02:13:26;;;;;;;15.25;7.07;;;;;;;2.63;59.88;96253.66;4931306;28;20273;-82
2023/11/29 02:15:52;;;;;;;12.68;5.78;;;;;;;2.60;59.97;96243.81;4928368;28;20608;-81
2023/11/29 02:18:17;;;;;;;11.48;6.45;;;;;;;2.60;60.47;96259.25;4933694;28;20294;-82
2023/11/29 02:20:43;;;;;;;13.10;6.10;;;;;;;2.68;60.01;96245.28;4943914;28;20296;-82
2023/11/29 02:23:26;;;;;;;12.48;6.60;;;;;;;2.83;60.13;96233.84;4919760;28;20301;-81
2023/11/29 02:25:51;;;;;;;11.77;6.30;;;;;;;2.61;59.68;96224.03;4927747;28;20228;-83
2023/11/29 02:28:17;;;;;;;12.90;6.78;;;;;;;2.64;59.81;96213.34;4944598;28;20594;-82
2023/11/29 02:30:42;;;;;;;13.40;6.43;;;;;;;2.78;59.52;96225.00;4928735;28;20211;-81
2023/11/29 02:33:07;;;;;;;13.70;7.25;;;;;;;2.67;59.97;96210.31;4933110;28;20308;-81
2023/11/29 02:35:33;;;;;;;12.48;6.50;;;;;;;2.69;59.57;96217.81;4933325;28;20643;-82
2023/11/29 02:37:58;;;;;;;12.82;6.03;;;;;;;2.57;59.82;96199.75;4906758;28;20254;-81
2023/11/29 02:40:24;;;;;;;16.08;7.65;;;;;;;2.61;59.89;96213.75;4907469;28;20245;-82
2023/11/29 02:42:50;;;;;;;13.85;7.15;;;;;;;2.69;59.77;96221.19;4928896;28;20250;-81
2023/11/29 02:45:15;;;;;;;13.45;7.18;;;;;;;2.58;60.22;96216.75;4912738;28;20181;-81
2023/11/29 02:47:41;;;;;;;14.32;7.38;;;;;;;2.49;60.47;96210.38;4930530;28;20270;-81
2023/11/29 02:50:07;;;;;;;14.40;7.13;;;;;;;2.47;60.29;96202.88;4941984;28;20336;-82
2023/11/29 02:52:32;;;;;;;13.23;6.53;;;;;;;2.50;60.24;96217.06;4933611;28;20180;-82
2023/11/29 02:54:57;;;;;;;13.75;6.53;;;;;;;2.59;60.55;96215.78;4928632;28;20181;-81
2023/11/29 02:57:23;;;;;;;16.05;7.53;;;;;;;2.46;60.51;96211.56;4928543;28;20275;-81
2023/11/29 02:59:48;;;;;;;13.85;6.55;;;;;;;2.59;60.48;96210.63;4924753;28;20211;-82
2023/11/29 03:02:14;;;;;;;15.02;7.28;;;;;;;2.53;60.51;96198.63;4913614;28;20248;-81
2023/11/29 03:04:39;;;;;;;13.40;7.10;;;;;;;2.62;60.55;96199.91;4907317;28;20273;-81
2023/11/29 03:07:05;;;;;;;14.73;6.95;;;;;;;2.59;60.25;96192.66;4930488;28;20185;-82
2023/11/29 03:09:30;;;;;;;12.23;6.70;;;;;;;2.58;60.39;96196.19;4927134;28;20204;-82
2023/11/29 03:11:56;;;;;;;15.48;6.55;;;;;;;2.46;61.10;96195.38;4895888;28;20705;-82
2023/11/29 03:14:21;;;;;;;15.45;7.30;;;;;;;2.57;61.12;96187.72;4918691;28;20286;-81
2023/11/29 03:16:47;;;;;;;15.68;7.35;;;;;;;2.70;61.18;96185.97;4935795;28;20238;-81
2023/11/29 03:19:12;;;;;;;13.63;6.53;;;;;;;2.68;60.62;96181.06;4932702;28;20212;-81
2023/11/29 03:21:37;;;;;;;15.02;7.13;;;;;;;2.50;61.03;96158.75;4942795;28;20578;-82
2023/11/29 03:24:03;;;;;;;13.10;6.03;;;;;;;2.66;60.73;96177.91;4938725;28;20226;-82
2023/11/29 03:26:28;;;;;;;12.48;6.30;;;;;;;2.71;60.42;96178.03;4933739;28;20169;-82
2023/11/29 03:28:53;;;;;;;13.95;6.88;;;;;;;2.63;60.99;96166.28;4923812;28;20618;-82
2023/11/29 03:31:19;;;;;;;14.20;6.40;;;;;;;2.74;60.78;96172.47;4942363;28;20286;-81
2023/11/29 03:33:44;;;;;;;16.25;7.47;;;;;;;2.79;60.71;96175.19;4927278;28;20299;-81
2023/11/29 03:36:10;;;;;;;14.00;7.07;;;;;;;2.54;61.52;96152.19;4925711;28;20297;-81
2023/11/29 03:38:35;;;;;;;14.35;6.07;;;;;;;2.57;61.31;96161.22;4903127;28;20418;-82
2023/11/29 03:41:00;;;;;;;15.55;6.88;;;;;;;2.68;61.36;96160.50;4923328;28;20386;-83
2023/11/29 03:43:26;;;;;;;13.88;6.50;;;;;;;2.69;61.34;96154.34;4910845;28;20273;-81
2023/11/29 03:45:51;;;;;;;13.80;6.32;;;;;;;2.75;61.39;96156.03;4941742;28;20714;-81
2023/11/29 03:48:16;;;;;;;14.95;7.60;;;;;;;2.78;61.00;96144.53;4901740;28;20212;-81
2023/11/29 03:50:43;;;;;;;13.18;6.47;;;;;;;2.85;61.23;96152.94;4931102;28;20211;-82
2023/11/29 03:53:08;;;;;;;14.65;7.05;;;;;;;2.89;61.44;96145.56;4914823;28;20253;-81
2023/11/29 03:55:34;;;;;;;13.48;6.53;;;;;;;2.93;61.37;96136.41;4941281;28;20648;-81
2023/11/29 03:57:59;;;;;;;11.85;6.50;;;;;;;2.97;60.61;96135.75;4922261;28;20951;-81
2023/11/29 04:00:25;;;;;;;13.18;6.43;;;;;;;2.89;61.47;96130.91;4923875;28;20717;-81
2023/11/29 04:02:50;;;;;;;12.23;6.35;;;;;;;3.03;61.21;96130.72;4920324;28;20210;-81
2023/11/29 04:05:16;;;;;;;12.93;6.15;;;;;;;3.00;61.74;96132.72;4920167;28;20296;-81
2023/11/29 04:07:41;;;;;;;14.43;5.75;;;;;;;3.04;61.27;96122.78;4925877;28;20270;-81
2023/11/29 04:10:07;;;;;;;15.82;7.20;;;;;;;3.11;60.81;96120.88;4924447;28;20252;-81
2023/11/29 04:12:32;;;;;;;12.70;6.22;;;;;;;3.13;61.00;96120.66;4934891;28;20279;-81
2023/11/29 04:14:58;;;;;;;13.55;6.43;;;;;;;3.19;60.85;96123.13;4936142;28;20204;-81
2023/11/29 04:17:23;;;;;;;15.52;6.38;;;;;;;3.15;61.26;96123.78;4924496;28;20255;-80
2023/11/29 04:19:48;;;;;;;13.25;6.45;;;;;;;3.15;61.29;96123.78;4902129;28;20560;-81
2023/11/29 04:22:14;;;;;;;13.18;6.35;;;;;;;3.14;61.27;96110.16;4920840;28;20696;-81
2023/11/29 04:24:39;;;;;;;14.43;7.10;;;;;;;3.24;61.11;96108.81;4929891;28;20654;-82
2023/11/29 04:27:05;;;;;;;12.88;6.50;;;;;;;3.24;61.12;96109.63;4942675;28;20280;-82
2023/11/29 04:29:30;;;;;;;13.85;6.47;;;;;;;3.21;61.38;96112.63;4932984;28;20706;-81
2023/11/29 04:31:56;;;;;;;14.02;6.65;;;;;;;3.28;61.17;96104.81;4942650;28;20286;-81
2023/11/29 04:34:21;;;;;;;13.98;6.25;;;;;;;3.31;61.24;96106.94;4911807;28;20211;-82
2023/11/29 04:36:47;;;;;;;12.43;6.22;;;;;;;3.21;61.21;96099.75;4919276;28;20182;-83
2023/11/29 04:39:13;;;;;;;12.10;6.30;;;;;;;3.29;60.91;96106.34;4922713;28;20245;-82
2023/11/29 04:41:41;;;;;;;13.65;6.88;;;;;;;3.41;61.16;96109.72;4942140;28;20587;-83
2023/11/29 04:44:08;;;;;;;14.93;7.47;;;;;;;3.00;62.18;96108.81;4912745;28;20301;-82
2023/11/29 04:46:34;;;;;;;15.30;7.60;;;;;;;3.21;61.79;96097.19;4903975;28;20300;-82
2023/11/29 04:48:59;;;;;;;13.27;6.50;;;;;;;3.36;61.58;96100.09;4900737;28;20692;-82
2023/11/29 04:51:26;;;;;;;13.63;6.55;;;;;;;3.38;60.87;96102.44;4900197;28;20656;-82
2023/11/29 04:53:52;;;;;;;15.57;7.80;;;;;;;3.30;60.89;96088.13;4927093;28;20176;-82
2023/11/29 04:56:18;;;;;;;14.10;6.40;;;;;;;3.38;61.87;96113.50;4922985;28;21152;-82
2023/11/29 04:58:44;;;;;;;13.25;6.63;;;;;;;3.45;61.40;96112.63;4934899;28;20278;-81
2023/11/29 05:01:10;;;;;;;14.50;6.93;;;;;;;3.46;61.22;96111.59;4916315;28;20165;-82
2023/11/29 05:03:39;;;;;;;16.05;7.38;;;;;;;3.58;61.60;96121.88;4922653;28;20197;-81
2023/11/29 05:06:09;;;;;;;14.27;7.45;;;;;;;3.35;62.51;96111.38;4921576;28;20363;-82
2023/11/29 05:08:35;;;;;;;14.18;7.68;;;;;;;3.44;62.32;96106.69;4909511;28;20210;-81
2023/11/29 05:11:01;;;;;;;16.63;7.93;;;;;;;3.54;61.70;96099.19;4944365;28;20369;-81
2023/11/29 05:13:27;;;;;;;16.10;7.65;;;;;;;3.45;62.04;96099.75;4941860;28;20364;-82
2023/11/29 05:15:53;;;;;;;16.70;7.53;;;;;;;3.61;61.87;96098.28;4945840;28;20695;-81
2023/11/29 05:18:19;;;;;;;15.25;7.57;;;;;;;3.54;61.96;96088.88;4944941;28;20294;-81
2023/11/29 05:20:44;;;;;;;14.48;7.35;;;;;;;3.63;61.98;96086.75;4931815;28;20565;-82
2023/11/29 05:23:10;;;;;;;17.70;7.65;;;;;;;3.59;62.03;96083.06;4931987;28;20783;-81
2023/11/29 05:25:35;;;;;;;15.48;7.10;;;;;;;3.62;62.04;96090.34;4924577;28;20241;-81
2023/11/29 05:28:00;;;;;;;15.45;6.88;;;;;;;3.55;62.57;96100.75;4915186;28;20289;-82
2023/11/29 05:30:26;;;;;;;16.45;7.45;;;;;;;3.54;62.18;96086.31;4927087;28;20131;-81
2023/11/29 05:32:51;;;;;;;17.08;7.97;;;;;;;3.54;62.92;96088.88;4934417;28;20235;-81
2023/11/29 05:35:17;;;;;;;14.93;7.25;;;;;;;3.65;62.37;96096.81;4946865;28;20177;-81
2023/11/29 05:37:42;;;;;;;15.20;8.07;;;;;;;3.74;62.03;96087.75;4907069;28;20187;-81
2023/11/29 05:40:09;;;;;;;16.23;8.07;;;;;;;3.86;61.82;96080.00;4926047;28;21077;-81
2023/11/29 05:42:35;;;;;;;13.75;6.40;;;;;;;3.61;62.37;96080.28;4926827;28;20193;-81
2023/11/29 05:45:03;;;;;;;15.90;7.07;;;;;;;3.64;62.21;96079.81;4948866;28;20135;-81
2023/11/29 05:47:29;;;;;;;17.27;7.22;;;;;;;3.60;62.61;96087.22;4927952;28;20581;-82
2023/11/29 05:49:54;;;;;;;13.98;7.68;;;;;;;3.68;62.43;96076.53;4947343;28;20278;-81
2023/11/29 05:52:20;;;;;;;15.88;8.13;;;;;;;3.65;62.45;96081.38;4934112;28;20246;-81
2023/11/29 05:54:46;;;;;;;13.05;6.75;;;;;;;3.76;62.30;96080.56;4923904;28;20281;-81
2023/11/29 05:57:12;;;;;;;15.90;7.32;;;;;;;3.66;62.31;96080.38;4932314;28;20223;-80
2023/11/29 05:59:38;;;;;;;13.40;7.05;;;;;;;3.66;62.20;96080.38;4923957;28;20158;-82
2023/11/29 06:02:05;;;;;;;12.95;6.97;;;;;;;3.82;61.63;96079.69;4928028;28;20298;-81
2023/11/29 06:04:31;;;;;;;13.57;7.07;;;;;;;3.85;62.01;96079.19;4905961;28;20586;-81
2023/11/29 06:06:57;;;;;;;13.45;7.43;;;;;;;3.86;61.45;96067.91;4915678;28;20208;-81
2023/11/29 06:09:28;;;;;;;12.93;6.57;;;;;;;3.90;61.49;96075.94;4922626;28;20162;-82
2023/11/29 06:11:57;;;;;;;13.50;6.85;;;;;;;3.82;61.78;96081.44;4909327;28;20196;-80
2023/11/29 06:14:22;;;;;;;14.05;7.03;;;;;;;3.60;62.74;96076.13;4924253;28;20567;-81
2023/11/29 06:16:51;;;;;;;13.95;7.60;;;;;;;3.89;62.05;96082.91;4907297;28;20299;-80
2023/11/29 06:19:17;;;;;;;14.15;7.10;;;;;;;3.83;62.04;96086.38;4918241;28;20732;-81
2023/11/29 06:21:42;;;;;;;12.30;6.93;;;;;;;3.82;61.67;96084.81;4930883;28;20365;-81
2023/11/29 06:24:09;;;;;;;12.80;6.18;;;;;;;3.85;61.75;96081.78;4938700;28;20204;-83
2023/11/29 06:26:35;;;;;;;13.50;6.78;;;;;;;3.87;61.89;96077.19;4946770;28;20323;-80
2023/11/29 06:29:01;;;;;;;12.10;5.78;;;;;;;3.89;61.92;96075.16;4929854;28;20777;-80
2023/11/29 06:31:26;;;;;;;12.80;6.57;;;;;;;3.88;61.72;96073.59;4920596;28;20110;-80
2023/11/29 06:33:52;;;;;;;15.35;6.90;;;;;;;4.15;60.81;96078.22;4912340;28;20305;-80
2023/11/29 06:36:19;;;;;;;13.02;6.85;;;;;;;4.05;61.39;96080.59;4938697;28;20637;-81
2023/11/29 06:38:48;;;;;;;12.00;7.03;;;;;;;4.10;61.38;96075.56;4941197;28;20215;-80
2023/11/29 06:41:13;;;;;;;11.85;6.30;;;;;;;4.03;61.29;96070.53;4939500;28;20199;-79
2023/11/29 06:43:39;;;;;;;10.68;5.85;;;;;;;4.05;61.80;96083.19;4914881;28;20216;-79
2023/11/29 06:46:05;;;;;;;12.00;6.00;;;;;;;4.13;61.17;96080.25;4936173;28;20219;-80
2023/11/29 06:48:31;;;;;;;14.95;6.60;;;;;;;4.13;61.22;96086.19;4941511;28;20633;-80
2023/11/29 06:51:00;;;;;;;14.32;6.60;;;;;;;3.96;61.64;96082.78;4937013;28;20200;-79
2023/11/29 06:53:26;;;;;;;11.77;6.28;;;;;;;3.97;61.83;96068.09;4911606;28;20366;-80
2023/11/29 06:55:52;;;;;;;12.55;6.47;;;;;;;4.02;60.96;96083.63;4925176;28;20727;-80
2023/11/29 06:58:17;;;;;;;12.40;6.88;;;;;;;3.96;61.21;96067.31;4922588;28;20245;-81
2023/11/29 07:00:43;;;;;;;11.70;6.00;;;;;;;3.88;61.46;96076.16;4908943;28;20453;-80
2023/11/29 07:03:09;;;;;;;11.88;6.88;;;;;;;4.10;61.23;96076.31;4923084;28;20291;-80
2023/11/29 07:05:34;;;;;;;12.77;6.47;;;;;;;4.01;62.08;96079.50;4909308;28;20569;-80
2023/11/29 07:08:00;;;;;;;11.60;6.10;;;;;;;3.99;61.82;96078.94;4903663;28;20604;-80
2023/11/29 07:10:26;;;;;;;12.50;6.72;;;;;;;4.13;61.21;96077.69;4912013;28;20291;-80
2023/11/29 07:12:55;;;;;;;13.20;7.10;;;;;;;4.08;61.62;96075.00;4931780;28;20157;-80
2023/11/29 07:15:20;;;;;;;11.05;6.10;;;;;;;3.99;61.69;96078.94;4932739;28;20668;-80
2023/11/29 07:17:45;;;;;;;11.40;6.03;;;;;;;4.01;61.86;96077.72;4940988;28;20212;-80
2023/11/29 07:20:11;;;;;;;11.32;6.03;;;;;;;4.05;61.92;96088.34;4946776;28;20737;-80
2023/11/29 07:22:37;;;;;;;11.50;6.13;;;;;;;4.05;61.92;96085.75;4918638;28;20188;-80
2023/11/29 07:25:03;;;;;;;11.75;5.70;;;;;;;4.21;61.43;96079.84;4932278;28;20278;-80
2023/11/29 07:27:28;;;;;;;10.63;5.45;;;;;;;4.24;61.37;96076.06;4945139;28;20281;-80
2023/11/29 07:29:54;;;;;;;12.82;6.05;;;;;;;4.37;61.31;96086.09;4929274;28;20189;-81
2023/11/29 07:32:22;;;;;;;9.68;5.28;;;;;;;3.93;62.67;96086.56;4923388;28;20184;-80
2023/11/29 07:34:49;;;;;;;10.80;6.00;;;;;;;4.13;62.21;96082.81;4903969;28;20205;-79
2023/11/29 07:37:19;;;;;;;9.88;5.47;;;;;;;4.16;62.29;96089.31;4917671;28;20709;-79
2023/11/29 07:39:44;;;;;;;10.15;5.90;;;;;;;4.18;62.22;96100.94;4933400;28;20278;-79
2023/11/29 07:42:10;;;;;;;9.40;4.95;;;;;;;4.20;62.63;96098.94;4912385;28;20564;-80
2023/11/29 07:44:35;;;;;;;10.20;5.60;;;;;;;4.24;62.14;96097.44;4945122;28;20286;-79
2023/11/29 07:47:03;;;;;;;9.30;4.75;;;;;;;4.01;63.37;96093.16;4922772;28;20210;-79
2023/11/29 07:49:29;;;;;;;10.95;5.50;;;;;;;3.94;63.59;96098.44;4917839;28;20144;-79
2023/11/29 07:51:55;;;;;;;9.77;5.80;;;;;;;3.77;64.35;96097.59;4921870;28;20258;-80
2023/11/29 07:54:20;;;;;;;10.38;5.60;;;;;;;3.89;63.84;96095.78;4911920;28;20739;-79
2023/11/29 07:56:45;;;;;;;10.40;5.55;;;;;;;3.96;64.25;96105.16;4918818;28;20268;-79
2023/11/29 07:59:12;;;;;;;10.18;5.45;;;;;;;3.98;63.57;96093.63;4927273;28;20208;-80
2023/11/29 08:01:38;;;;;;;11.02;6.07;;;;;;;3.98;63.76;96092.84;4907834;28;20212;-81
2023/11/29 08:04:04;;;;;;;12.40;6.07;;;;;;;4.03;63.98;96092.94;4944387;28;20270;-80
2023/11/29 08:06:30;;;;;;;12.75;6.68;;;;;;;4.10;63.46;96091.00;4921885;28;20279;-80
2023/11/29 08:08:56;;;;;;;10.15;6.03;;;;;;;3.90;64.13;96086.25;4933292;28;20245;-80
2023/11/29 08:11:22;;;;;;;10.60;5.80;;;;;;;4.02;63.51;96093.94;4921554;28;20250;-81
2023/11/29 08:13:47;;;;;;;10.60;6.25;;;;;;;3.98;63.75;96093.63;4951850;28;20184;-80
2023/11/29 08:16:12;;;;;;;11.18;5.78;;;;;;;3.97;64.13;96091.28;4953963;28;20192;-81
2023/11/29 08:18:38;;;;;;;12.15;6.28;;;;;;;3.95;63.82;96094.06;4931912;28;20216;-80
2023/11/29 08:21:03;;;;;;;9.73;5.57;;;;;;;3.94;64.08;96092.50;4939848;28;20204;-80
2023/11/29 08:23:28;;;;;;;8.90;5.28;;;;;;;3.99;64.14;96084.88;4927891;28;20582;-79
2023/11/29 08:25:54;;;;;;;11.55;5.78;;;;;;;3.99;63.89;96089.25;4932257;28;20330;-80
2023/11/29 08:28:19;;;;;;;10.70;5.68;;;;;;;3.87;64.68;96095.22;4916426;28;20283;-80
2023/11/29 08:30:45;;;;;;;10.75;6.07;;;;;;;3.95;64.42;96088.91;4923939;28;20098;-80
2023/11/29 08:33:10;;;;;;;9.32;5.75;;;;;;;4.03;64.06;96095.50;4932392;28;20954;-81
2023/11/29 08:35:36;;;;;;;11.55;6.18;;;;;;;3.94;64.16;96082.19;4919312;28;20198;-79
2023/11/29 08:38:01;;;;;;;13.27;6.68;;;;;;;4.06;64.15;96082.16;4939783;28;20203;-80
2023/11/29 08:40:27;;;;;;;10.32;5.82;;;;;;;4.07;64.21;96086.31;4918082;28;20282;-80
2023/11/29 08:42:52;;;;;;;11.85;6.75;;;;;;;3.92;64.29;96071.34;4924500;28;20211;-79
2023/11/29 08:45:18;;;;;;;13.05;6.75;;;;;;;3.89;63.90;96077.75;4924883;28;20323;-79
2023/11/29 08:47:43;;;;;;;11.93;6.70;;;;;;;3.83;65.38;96083.78;4923670;28;20188;-80
2023/11/29 08:50:09;;;;;;;11.82;7.15;;;;;;;3.97;64.55;96086.13;4916046;28;20760;-79
2023/11/29 08:52:35;;;;;;;11.18;6.50;;;;;;;3.91;64.07;96072.38;4915718;28;20196;-79
2023/11/29 08:55:00;;;;;;;13.00;7.07;;;;;;;4.09;64.23;96079.91;4907758;28;20181;-80
2023/11/29 08:57:25;;;;;;;12.90;7.35;;;;;;;4.13;64.17;96081.03;4925410;28;20282;-80
2023/11/29 08:59:51;;;;;;;13.88;7.68;;;;;;;4.05;64.29;96068.50;4925948;28;20628;-79
2023/11/29 09:02:22;;;;;;;13.13;7.10;;;;;;;4.21;64.95;96086.81;4924763;28;20811;-79
2023/11/29 09:04:48;;;;;;;14.50;7.18;;;;;;;4.10;64.32;96072.97;4926970;28;20204;-80
2023/11/29 09:07:13;;;;;;;13.95;7.15;;;;;;;4.04;64.67;96066.16;4906294;28;20356;-80
2023/11/29 09:09:45;;;;;;;13.32;6.78;;;;;;;4.10;64.99;96080.69;4930635;28;20341;-79
2023/11/29 09:12:11;;;;;;;14.40;6.75;;;;;;;4.12;64.22;96069.16;4924793;28;20655;-79
2023/11/29 09:14:39;;;;;;;15.00;7.50;;;;;;;4.26;64.10;96074.78;4913685;28;20210;-79
2023/11/29 09:17:05;;;;;;;14.60;7.88;;;;;;;4.15;64.46;96073.06;4947123;28;20609;-79
2023/11/29 09:19:34;;;;;;;12.55;7.05;;;;;;;4.25;64.41;96088.72;4944139;28;20200;-79
2023/11/29 09:22:00;;;;;;;13.70;7.00;;;;;;;4.16;63.69;96090.06;4943721;28;20240;-78
2023/11/29 09:24:26;;;;;;;12.60;6.95;;;;;;;4.21;64.43;96092.75;4946853;28;20666;-79
2023/11/29 09:26:51;;;;;;;12.45;6.43;;;;;;;4.16;64.16;96090.06;4920032;28;20199;-79
2023/11/29 09:29:17;;;;;;;13.50;7.32;;;;;;;4.22;64.35;96096.91;4940346;28;20329;-79
2023/11/29 09:31:42;;;;;;;13.57;7.10;;;;;;;4.27;64.53;96099.56;4936236;28;20176;-78
2023/11/29 09:34:08;;;;;;;12.73;6.70;;;;;;;4.27;64.30;96093.63;4921923;28;20541;-79
2023/11/29 09:36:33;;;;;;;14.52;7.72;;;;;;;4.16;64.71;96100.38;4947293;28;20165;-79
2023/11/29 09:38:58;;;;;;;16.13;8.25;;;;;;;4.30;64.11;96095.72;4927252;28;20215;-78
2023/11/29 09:41:24;;;;;;;14.07;8.02;;;;;;;4.30;64.38;96090.56;4945912;28;20172;-79
2023/11/29 09:43:49;;;;;;;13.60;7.28;;;;;;;4.22;65.38;96099.47;4930438;28;20313;-79
2023/11/29 09:46:15;;;;;;;12.77;7.07;;;;;;;4.09;65.17;96089.44;4946984;28;20303;-78
2023/11/29 09:48:42;;;;;;;13.07;7.72;;;;;;;4.29;64.33;96094.19;4928248;28;20200;-78
2023/11/29 09:51:07;;;;;;;14.90;7.72;;;;;;;4.29;64.20;96089.81;4909125;28;20702;-77
2023/11/29 09:53:33;;;;;;;14.35;8.57;;;;;;;4.42;64.06;96093.09;4930035;28;20240;-78
2023/11/29 09:55:58;;;;;;;15.05;8.35;;;;;;;4.46;64.07;96094.22;4911376;28;20287;-79
2023/11/29 09:58:27;;;;;;;12.88;7.20;;;;;;;4.02;65.97;96096.50;4946351;28;20327;-78
2023/11/29 10:00:53;;;;;;;13.77;7.35;;;;;;;4.30;64.75;96090.56;4946505;28;20196;-78
2023/11/29 10:03:20;;;;;;;14.93;7.65;;;;;;;4.19;65.39;96081.88;4913117;28;20347;-79
2023/11/29 10:05:49;;;;;;;14.05;8.02;;;;;;;4.52;64.24;96079.63;4918111;28;20286;-79
2023/11/29 10:08:21;;;;;;;13.95;8.10;;;;;;;4.49;64.81;96086.03;4928009;28;20290;-79
2023/11/29 10:10:47;;;;;;;14.20;8.18;;;;;;;4.48;64.57;96077.50;4946964;28;20168;-79
2023/11/29 10:13:13;;;;;;;16.05;8.10;;;;;;;4.11;65.68;96079.69;4932542;28;20291;-79
2023/11/29 10:15:44;;;;;;;13.48;7.72;;;;;;;4.39;65.42;96073.75;4928616;28;20722;-78
2023/11/29 10:18:09;;;;;;;15.32;8.00;;;;;;;4.32;65.17;96070.53;4928392;28;20265;-78
2023/11/29 10:20:35;;;;;;;14.70;8.15;;;;;;;4.30;65.57;96064.81;4926613;28;20584;-79
2023/11/29 10:23:00;;;;;;;17.20;8.25;;;;;;;4.29;65.60;96066.63;4913926;28;20266;-79
2023/11/29 10:25:29;;;;;;;17.63;9.25;;;;;;;4.21;66.62;96051.53;4929137;28;20587;-78
2023/11/29 10:27:54;;;;;;;14.35;7.45;;;;;;;4.29;65.67;96047.81;4931363;28;20247;-79
2023/11/29 10:30:20;;;;;;;15.68;7.68;;;;;;;4.51;65.41;96055.66;4911255;28;20284;-79
2023/11/29 10:32:46;;;;;;;15.63;8.18;;;;;;;4.46;65.33;96052.97;4930456;28;20165;-78
2023/11/29 10:35:15;;;;;;;15.57;8.13;;;;;;;4.39;65.73;96052.34;4913526;28;20167;-78
2023/11/29 10:37:44;;;;;;;15.75;8.57;;;;;;;4.57;65.04;96059.84;4914553;28;20293;-79
2023/11/29 10:40:14;;;;;;;15.00;7.93;;;;;;;4.42;66.08;96060.41;4930380;28;20637;-79
2023/11/29 10:42:42;;;;;;;15.35;8.55;;;;;;;4.69;64.78;96058.00;4926337;28;20425;-78
2023/11/29 10:45:10;;;;;;;15.93;8.73;;;;;;;4.34;65.78;96058.19;4920823;28;20311;-78
2023/11/29 10:47:37;;;;;;;15.98;8.35;;;;;;;4.60;64.58;96067.13;4927121;28;20208;-78
2023/11/29 10:50:10;;;;;;;15.80;8.38;;;;;;;4.68;65.08;96048.69;4916083;28;20666;-79
2023/11/29 10:52:36;;;;;;;14.80;7.45;;;;;;;4.66;65.13;96060.25;4926197;28;20166;-78
2023/11/29 10:55:02;;;;;;;20.90;8.57;;;;;;;4.45;65.20;96059.16;4943270;28;20286;-78
2023/11/29 10:57:37;;;;;;;13.82;7.43;;;;;;;4.74;64.80;96052.13;4945004;28;20211;-78
2023/11/29 11:00:06;;;;;;;15.90;8.13;;;;;;;4.74;65.18;96051.34;4928867;28;20110;-79
2023/11/29 11:02:32;;;;;;;12.52;7.60;;;;;;;4.92;64.61;96061.44;4929325;28;20628;-78
2023/11/29 11:05:09;;;;;;;15.95;7.65;;;;;;;4.93;64.19;96052.66;4945678;28;20188;-78
2023/11/29 11:07:41;;;;;;;13.73;7.72;;;;;;;4.90;64.40;96052.38;4904456;28;20663;-78
2023/11/29 11:10:13;;;;;;;14.80;8.18;;;;;;;4.94;64.80;96053.47;4926941;28;20676;-78
2023/11/29 11:12:40;;;;;;;13.48;8.18;;;;;;;4.87;64.46;96048.47;4910907;28;20265;-79
2023/11/29 11:15:28;;;;;;;15.50;7.88;;;;;;;4.74;64.70;96053.94;4935099;28;20165;-78
2023/11/29 11:18:00;;;;;;;14.55;8.23;;;;;;;4.65;64.81;96050.97;4941655;28;20288;-78
2023/11/29 11:20:38;;;;;;;13.23;7.88;;;;;;;4.94;64.76;96056.81;4939728;28;20231;-78
2023/11/29 11:23:04;;;;;;;15.57;8.10;;;;;;;4.80;64.21;96042.69;4926068;28;20716;-78
2023/11/29 11:25:30;;;;;;;14.40;7.78;;;;;;;4.72;65.23;96050.81;4945711;28;20035;-78
2023/11/29 11:27:55;;;;;;;15.88;8.07;;;;;;;4.73;64.79;96047.22;4931559;28;20669;-78
2023/11/29 11:30:21;;;;;;;16.40;8.75;;;;;;;4.87;64.63;96043.31;4950140;28;20041;-78